Time;durP1;ratioP1;P1;durP2;ratioP2;P2;SDS_P1;SDS_P2;PMS_P1;PMS_P2;Temp;Humidity;BMP_temperature;BMP_pressure;BME280_temperature;BME280_humidity;BME280_pressure;Samples;Min_cycle;Max_cycle;Signal;HPM_P1;HPM_P2
2022/05/08 00:01:00;;;;;;;6.80;3.40;;;;;;;9.34;nan;-24077.94;4895107;29;20232;-65
2022/05/08 00:03:25;;;;;;;7.60;3.53;;;;;;;9.11;nan;-24071.44;4893912;29;20200;-66
2022/05/08 00:05:51;;;;;;;7.93;3.63;;;;;;;9.28;nan;-24076.25;4893027;29;20224;-65
2022/05/08 00:08:16;;;;;;;6.40;3.67;;;;;;;9.19;nan;-24073.84;4895840;29;20188;-66
2022/05/08 00:10:42;;;;;;;8.07;3.57;;;;;;;9.39;nan;-24079.22;4897830;29;20190;-66
2022/05/08 00:13:09;;;;;;;6.13;3.80;;;;;;;9.19;nan;-24073.72;4899001;29;20191;-64
2022/05/08 00:15:35;;;;;;;4.80;3.50;;;;;;;9.47;nan;-24081.63;4895775;29;20231;-66
2022/05/08 00:18:01;;;;;;;10.70;3.90;;;;;;;9.14;nan;-24072.44;4893399;29;20271;-63
2022/05/08 00:20:26;;;;;;;8.87;3.80;;;;;;;9.40;nan;-24079.63;4896642;29;20192;-63
2022/05/08 00:22:51;;;;;;;4.90;3.60;;;;;;;9.38;nan;-24079.06;4896830;29;20188;-64
2022/05/08 00:25:17;;;;;;;5.57;3.93;;;;;;;8.97;nan;-24067.63;4895054;29;20184;-66
2022/05/08 00:27:42;;;;;;;7.43;3.83;;;;;;;9.20;nan;-24074.00;4893309;29;20187;-63
2022/05/08 00:30:09;;;;;;;6.60;3.93;;;;;;;8.72;nan;-24060.69;4894454;29;20700;-66
2022/05/08 00:32:34;;;;;;;6.33;3.77;;;;;;;8.94;nan;-24066.78;4893681;29;20636;-63
2022/05/08 00:35:00;;;;;;;6.20;4.00;;;;;;;9.00;nan;-24068.34;4894769;29;20247;-66
2022/05/08 00:37:25;;;;;;;7.53;3.97;;;;;;;8.73;nan;-24060.84;4894334;29;20306;-63
2022/05/08 00:39:51;;;;;;;6.40;3.90;;;;;;;8.97;nan;-24067.63;4897434;29;20644;-67
2022/05/08 00:42:16;;;;;;;6.20;4.20;;;;;;;8.96;nan;-24067.19;4897065;29;20181;-63
2022/05/08 00:44:42;;;;;;;8.73;3.93;;;;;;;8.87;nan;-24064.78;4896619;29;20184;-65
2022/05/08 00:47:07;;;;;;;8.30;4.30;;;;;;;8.85;nan;-24064.22;4898411;29;20230;-64
2022/05/08 00:49:33;;;;;;;5.57;4.07;;;;;;;8.57;nan;-24056.44;4896987;29;20190;-64
2022/05/08 00:51:59;;;;;;;7.23;4.40;;;;;;;8.95;nan;-24066.91;4897898;29;20195;-66
2022/05/08 00:54:24;;;;;;;8.07;4.70;;;;;;;7.23;nan;-24018.91;4895247;29;20631;-63
2022/05/08 00:56:50;;;;;;;8.07;4.43;;;;;;;8.53;nan;-24055.31;4897785;29;20212;-66
2022/05/08 00:59:16;;;;;;;11.73;4.60;;;;;;;8.17;nan;-24045.13;4896142;29;20570;-66
2022/05/08 01:01:41;;;;;;;6.73;4.30;;;;;;;8.17;nan;-24045.13;4893175;29;20599;-64
2022/05/08 01:04:07;;;;;;;8.90;4.50;;;;;;;8.02;nan;-24040.88;4905188;29;20192;-64
2022/05/08 01:06:32;;;;;;;8.97;4.47;;;;;;;7.91;nan;-24038.03;4891536;29;20261;-66
2022/05/08 01:08:58;;;;;;;8.33;4.83;;;;;;;7.80;nan;-24034.91;4896065;29;20274;-65
2022/05/08 01:11:23;;;;;;;9.47;4.80;;;;;;;7.85;nan;-24036.19;4892893;29;20354;-64
2022/05/08 01:13:50;;;;;;;8.00;5.20;;;;;;;7.75;nan;-24033.50;4894246;29;20259;-64
2022/05/08 01:16:17;;;;;;;8.83;4.90;;;;;;;7.49;nan;-24026.13;4895433;29;20211;-64
2022/05/08 01:18:44;;;;;;;10.50;4.93;;;;;;;7.75;nan;-24033.38;4892013;29;20196;-63
2022/05/08 01:21:13;;;;;;;7.20;4.80;;;;;;;7.47;nan;-24025.56;4891711;29;20192;-64
2022/05/08 01:23:39;;;;;;;9.07;4.70;;;;;;;7.52;nan;-24027.13;4894644;29;20176;-66
2022/05/08 01:26:05;;;;;;;10.13;4.90;;;;;;;7.28;nan;-24020.19;4894662;29;20192;-66
2022/05/08 01:28:31;;;;;;;10.83;5.00;;;;;;;7.42;nan;-24024.28;4891035;29;20219;-63
2022/05/08 01:30:57;;;;;;;9.10;4.90;;;;;;;7.12;nan;-24015.66;4889460;29;20215;-66
2022/05/08 01:33:23;;;;;;;11.40;5.30;;;;;;;7.58;nan;-24028.69;4892218;29;20266;-65
2022/05/08 01:35:49;;;;;;;7.30;4.57;;;;;;;7.23;nan;-24018.91;4904016;29;20256;-66
2022/05/08 01:38:16;;;;;;;11.03;4.73;;;;;;;7.36;nan;-24022.44;4889866;29;20195;-64
2022/05/08 01:40:45;;;;;;;7.43;4.87;;;;;;;7.04;nan;-24013.66;4890176;29;20672;-66
2022/05/08 01:43:12;;;;;;;7.10;4.90;;;;;;;7.00;nan;-24012.53;4891898;29;20222;-62
2022/05/08 01:45:38;;;;;;;13.23;5.40;;;;;;;7.25;nan;-24019.34;4891726;29;20668;-68
2022/05/08 01:48:23;;;;;;;7.10;4.60;;;;;;;7.12;nan;-24015.78;4892395;29;20188;-63
2022/05/08 01:50:56;;;;;;;8.57;4.80;;;;;;;7.13;nan;-24016.06;4892822;29;20565;-65
2022/05/08 01:53:23;;;;;;;17.33;5.00;;;;;;;6.12;nan;-23987.81;4891394;29;20191;-67
2022/05/08 01:55:52;;;;;;;16.03;5.00;;;;;;;6.92;nan;-24010.13;4890264;29;20187;-66
2022/05/08 01:58:17;;;;;;;10.93;5.93;;;;;;;7.13;nan;-24016.06;4888766;29;20295;-66
2022/05/08 02:00:43;;;;;;;13.47;6.40;;;;;;;5.76;nan;-23977.59;4892356;29;20716;-65
2022/05/08 02:03:09;;;;;;;12.07;6.67;;;;;;;6.75;nan;-24005.44;4889701;29;20219;-64
2022/05/08 02:05:39;;;;;;;10.57;6.40;;;;;;;6.81;nan;-24007.13;4891803;29;20214;-66
2022/05/08 02:08:05;;;;;;;8.10;5.93;;;;;;;6.56;nan;-24000.19;4891130;29;20194;-64
2022/05/08 02:10:31;;;;;;;7.20;5.03;;;;;;;6.80;nan;-24006.72;4893748;29;20258;-66
2022/05/08 02:12:56;;;;;;;10.67;5.70;;;;;;;6.41;nan;-23995.91;4894098;29;20286;-65
2022/05/08 02:15:22;;;;;;;15.97;5.20;;;;;;;6.20;nan;-23990.09;4893185;29;20522;-66
2022/05/08 02:17:47;;;;;;;9.73;5.17;;;;;;;6.42;nan;-23996.22;4890331;29;20216;-66
2022/05/08 02:20:13;;;;;;;9.20;5.30;;;;;;;6.21;nan;-23990.38;4894435;29;20191;-65
2022/05/08 02:22:38;;;;;;;10.27;5.63;;;;;;;6.25;nan;-23991.22;4906522;29;20192;-65
2022/05/08 02:25:05;;;;;;;9.83;5.23;;;;;;;6.16;nan;-23988.97;4890473;29;20199;-67
2022/05/08 02:27:35;;;;;;;9.73;5.80;;;;;;;6.03;nan;-23985.28;4891752;29;20278;-69
2022/05/08 02:30:00;;;;;;;10.80;5.87;;;;;;;6.02;nan;-23984.84;4892557;29;20272;-67
2022/05/08 02:32:26;;;;;;;9.57;6.10;;;;;;;5.49;nan;-23970.06;4892653;29;20183;-67
2022/05/08 02:34:51;;;;;;;9.80;5.70;;;;;;;5.64;nan;-23974.19;4892990;29;20190;-66
2022/05/08 02:37:16;;;;;;;11.23;6.60;;;;;;;5.81;nan;-23978.88;4892773;29;20259;-65
2022/05/08 02:39:43;;;;;;;47.10;25.87;;;;;;;5.49;nan;-23969.91;4906736;29;20218;-66
2022/05/08 02:42:08;;;;;;;48.50;25.40;;;;;;;5.39;nan;-23967.22;4892681;29;20219;-68
2022/05/08 02:44:34;;;;;;;196.17;100.93;;;;;;;5.81;nan;-23979.00;4891639;29;21093;-66
2022/05/08 02:46:59;;;;;;;147.87;77.73;;;;;;;5.37;nan;-23966.50;4891189;29;20203;-68
2022/05/08 02:49:25;;;;;;;93.20;49.43;;;;;;;5.52;nan;-23970.78;4893594;29;20196;-67
2022/05/08 02:51:50;;;;;;;65.77;36.40;;;;;;;5.55;nan;-23971.75;4893805;29;20188;-65
2022/05/08 02:54:15;;;;;;;42.33;25.43;;;;;;;6.00;nan;-23984.41;4893791;29;20180;-62
2022/05/08 02:59:25;;;;;;;59.33;34.43;;;;;;;6.07;nan;-23986.25;4892811;29;20234;-66
2022/05/08 03:01:50;;;;;;;64.77;36.13;;;;;;;6.08;nan;-23986.69;4892170;29;20286;-63
2022/05/08 03:04:16;;;;;;;73.73;41.27;;;;;;;6.11;nan;-23987.53;4894116;29;20199;-65
2022/05/08 03:06:41;;;;;;;58.57;34.83;;;;;;;6.16;nan;-23988.97;4907894;29;20227;-67
2022/05/08 03:09:07;;;;;;;55.83;33.43;;;;;;;5.80;nan;-23978.72;4908244;29;20196;-64
2022/05/08 03:11:33;;;;;;;43.67;23.67;;;;;;;5.93;nan;-23982.28;4894283;29;20196;-68
2022/05/08 03:13:59;;;;;;;39.17;22.40;;;;;;;6.47;nan;-23997.63;4891703;29;20181;-65
2022/05/08 03:16:27;;;;;;;38.07;24.17;;;;;;;6.03;nan;-23985.28;4891159;29;20276;-65
2022/05/08 03:18:53;;;;;;;42.40;24.53;;;;;;;6.46;nan;-23997.34;4892489;29;20208;-64
2022/05/08 03:21:19;;;;;;;33.53;21.73;;;;;;;6.59;nan;-24001.03;4893369;29;20284;-62
2022/05/08 03:23:46;;;;;;;30.67;17.73;;;;;;;6.14;nan;-23988.41;4893015;29;20679;-63
2022/05/08 03:26:14;;;;;;;24.17;15.70;;;;;;;7.00;nan;-24012.53;4906641;29;20687;-65
2022/05/08 03:28:40;;;;;;;22.10;14.00;;;;;;;7.85;nan;-24036.34;4891878;29;20195;-67
2022/05/08 03:31:06;;;;;;;18.53;11.10;;;;;;;8.95;nan;-24066.91;4892307;29;20172;-63
2022/05/08 03:33:33;;;;;;;14.13;8.73;;;;;;;9.44;nan;-24080.78;4873394;29;20582;-65
2022/05/08 03:35:59;;;;;;;13.10;8.20;;;;;;;10.39;nan;-24107.19;4891118;29;20240;-66
2022/05/08 03:38:25;;;;;;;13.63;7.93;;;;;;;11.46;nan;-24137.22;4892171;29;20196;-65
2022/05/08 03:40:51;;;;;;;12.90;7.70;;;;;;;11.72;nan;-24144.25;4892064;29;20188;-65
2022/05/08 03:43:16;;;;;;;11.40;7.60;;;;;;;12.37;nan;-24162.44;4889053;29;20211;-67
2022/05/08 03:45:43;;;;;;;9.63;5.90;;;;;;;13.15;nan;-24184.22;4893061;29;20196;-67
2022/05/08 03:48:09;;;;;;;10.73;6.73;;;;;;;13.68;nan;-24198.97;4892341;29;20214;-67
2022/05/08 03:50:35;;;;;;;10.83;7.07;;;;;;;14.24;nan;-24214.41;4905838;29;20192;-65
2022/05/08 03:53:03;;;;;;;11.15;6.05;;;;;;;14.59;nan;-24224.09;4892171;29;20192;-64
2022/05/08 03:55:29;;;;;;;10.60;6.28;;;;;;;15.69;nan;-24254.63;4892499;29;20223;-67
2022/05/08 03:57:54;;;;;;;9.75;5.53;;;;;;;15.90;nan;-24260.50;4891959;29;20224;-65
2022/05/08 04:00:20;;;;;;;9.23;5.40;;;;;;;16.53;nan;-24277.84;4891586;29;20210;-66
2022/05/08 04:02:46;;;;;;;10.73;5.20;;;;;;;17.17;nan;-24295.44;4907567;29;20235;-62
2022/05/08 04:05:12;;;;;;;8.40;5.00;;;;;;;17.24;nan;-24297.41;4897865;29;20196;-62
2022/05/08 04:07:38;;;;;;;15.63;5.22;;;;;;;18.14;nan;-24322.09;4891915;29;20211;-67
2022/05/08 04:10:05;;;;;;;9.70;4.57;;;;;;;18.27;nan;-24325.72;4889735;29;20203;-65
2022/05/08 04:12:30;;;;;;;12.07;5.03;;;;;;;19.10;nan;-24348.56;4891422;29;20671;-66
2022/05/08 04:14:55;;;;;;;9.10;5.13;;;;;;;19.19;nan;-24351.22;4891709;29;20196;-66
2022/05/08 04:17:21;;;;;;;8.45;4.28;;;;;;;19.15;nan;-24350.09;4891412;29;20563;-66
2022/05/08 04:19:46;;;;;;;9.18;4.68;;;;;;;19.26;nan;-24353.16;4890976;29;20284;-64
2022/05/08 04:24:58;;;;;;;5.70;4.57;;;;;;;19.70;nan;-24365.13;4894813;29;20199;-65
2022/05/08 04:27:27;;;;;;;8.18;4.95;;;;;;;19.97;nan;-24372.63;4896291;29;20275;-64
2022/05/08 04:29:58;;;;;;;7.88;4.93;;;;;;;19.45;nan;-24358.31;4894548;29;20703;-65
2022/05/08 04:32:23;;;;;;;8.40;4.57;;;;;;;19.17;nan;-24350.50;4892976;29;20184;-65
2022/05/08 04:34:49;;;;;;;8.90;5.00;;;;;;;18.40;nan;-24329.47;4892227;29;20183;-63
2022/05/08 04:37:14;;;;;;;9.52;5.18;;;;;;;16.04;nan;-24264.28;4895067;29;20184;-66
2022/05/08 04:39:39;;;;;;;9.88;5.18;;;;;;;15.37;nan;-24245.81;4892340;29;20179;-63
2022/05/08 04:42:05;;;;;;;10.23;6.45;;;;;;;14.61;nan;-24224.50;4894559;29;20192;-66
2022/05/08 04:44:30;;;;;;;10.10;6.75;;;;;;;15.41;nan;-24246.78;4895447;29;20256;-66
2022/05/08 04:46:56;;;;;;;17.17;9.82;;;;;;;15.44;nan;-24247.78;4895851;29;20211;-67
2022/05/08 04:49:21;;;;;;;13.65;9.45;;;;;;;15.01;nan;-24235.88;4893986;29;20816;-65
2022/05/08 04:51:47;;;;;;;12.65;7.78;;;;;;;15.87;nan;-24259.66;4892363;29;20211;-66
2022/05/08 04:54:12;;;;;;;12.73;8.05;;;;;;;16.21;nan;-24269.03;4896447;29;20660;-66
2022/05/08 04:56:38;;;;;;;16.65;8.30;;;;;;;15.93;nan;-24261.06;4895251;29;20287;-67
2022/05/08 04:59:03;;;;;;;13.05;8.65;;;;;;;15.33;nan;-24244.56;4893417;29;20184;-67
2022/05/08 05:01:29;;;;;;;17.10;9.05;;;;;;;15.40;nan;-24246.50;4894150;29;20614;-64
2022/05/08 05:03:55;;;;;;;20.17;9.32;;;;;;;15.56;nan;-24251.00;4895604;29;20191;-66
2022/05/08 05:06:20;;;;;;;12.20;7.85;;;;;;;15.14;nan;-24239.38;4893602;29;20218;-65
2022/05/08 05:08:46;;;;;;;11.13;7.10;;;;;;;14.96;nan;-24234.47;4894227;29;20623;-65
2022/05/08 05:11:11;;;;;;;11.13;6.70;;;;;;;14.56;nan;-24223.41;4888222;29;20327;-64
2022/05/08 05:13:38;;;;;;;12.57;7.18;;;;;;;14.59;nan;-24224.22;4891357;29;20283;-66
2022/05/08 05:16:06;;;;;;;10.73;6.40;;;;;;;14.80;nan;-24229.97;4889770;29;20568;-66
2022/05/08 05:18:32;;;;;;;9.50;6.30;;;;;;;14.28;nan;-24215.53;4891256;29;20198;-69
2022/05/08 05:20:57;;;;;;;9.90;6.05;;;;;;;13.71;nan;-24199.69;4891300;29;20583;-63
2022/05/08 05:23:23;;;;;;;8.20;5.72;;;;;;;13.79;nan;-24201.91;4891631;29;20180;-66
2022/05/08 05:25:50;;;;;;;8.30;5.90;;;;;;;13.47;nan;-24192.94;4886574;29;20183;-65
2022/05/08 05:28:16;;;;;;;9.77;6.10;;;;;;;13.07;nan;-24181.84;4885512;29;20218;-67
2022/05/08 05:30:42;;;;;;;9.60;5.90;;;;;;;12.78;nan;-24173.97;4884822;29;20195;-65
2022/05/08 05:33:07;;;;;;;9.82;6.47;;;;;;;12.64;nan;-24169.88;4886995;29;20240;-67
2022/05/08 05:35:37;;;;;;;10.50;6.57;;;;;;;12.34;nan;-24161.59;4889371;29;20645;-64
2022/05/08 05:38:03;;;;;;;10.07;6.20;;;;;;;12.27;nan;-24159.63;4889090;29;20687;-67
2022/05/08 05:40:29;;;;;;;9.70;6.57;;;;;;;12.46;nan;-24164.81;4887576;29;20184;-65
2022/05/08 05:42:57;;;;;;;10.27;6.20;;;;;;;12.66;nan;-24170.59;4887246;29;20633;-65
2022/05/08 05:45:24;;;;;;;9.13;6.13;;;;;;;12.62;nan;-24169.47;4889272;29;20180;-64
2022/05/08 05:47:52;;;;;;;10.57;6.20;;;;;;;12.88;nan;-24176.63;4889786;29;20230;-66
2022/05/08 05:50:22;;;;;;;13.18;6.97;;;;;;;12.94;nan;-24178.19;4890094;29;20184;-66
2022/05/08 05:52:49;;;;;;;9.55;6.63;;;;;;;12.49;nan;-24165.66;4888019;29;20192;-64
2022/05/08 05:55:15;;;;;;;10.35;6.72;;;;;;;13.10;nan;-24182.81;4887583;29;20652;-64
2022/05/08 05:57:41;;;;;;;10.68;6.63;;;;;;;12.73;nan;-24172.56;4887841;29;20315;-67
2022/05/08 06:00:10;;;;;;;10.00;6.55;;;;;;;12.75;nan;-24172.97;4889602;29;20200;-65
2022/05/08 06:02:35;;;;;;;12.85;6.78;;;;;;;12.46;nan;-24164.81;4901186;29;20232;-67
2022/05/08 06:05:01;;;;;;;10.45;6.18;;;;;;;12.68;nan;-24171.00;4872833;29;20198;-67
2022/05/08 06:07:26;;;;;;;8.60;6.35;;;;;;;13.12;nan;-24183.25;4890071;29;20212;-63
2022/05/08 06:09:52;;;;;;;12.70;6.38;;;;;;;13.18;nan;-24185.06;4890252;29;20190;-65
2022/05/08 06:12:17;;;;;;;11.40;6.95;;;;;;;13.12;nan;-24183.38;4887608;29;20334;-64
2022/05/08 06:14:46;;;;;;;10.50;6.47;;;;;;;13.41;nan;-24191.38;4889686;29;20320;-64
2022/05/08 06:17:13;;;;;;;11.40;6.47;;;;;;;13.46;nan;-24192.66;4889226;29;20198;-65
2022/05/08 06:19:38;;;;;;;10.18;6.65;;;;;;;13.80;nan;-24202.19;4885828;29;20550;-64
2022/05/08 06:22:03;;;;;;;9.73;6.53;;;;;;;13.00;nan;-24179.88;4887729;29;20559;-68
2022/05/08 06:24:29;;;;;;;9.25;6.88;;;;;;;13.23;nan;-24186.47;4889933;29;20180;-63
2022/05/08 06:26:54;;;;;;;9.88;6.32;;;;;;;13.35;nan;-24189.56;4887734;29;20212;-63
2022/05/08 06:29:20;;;;;;;11.85;6.88;;;;;;;13.36;nan;-24190.00;4887762;29;20505;-64
2022/05/08 06:31:46;;;;;;;15.13;7.28;;;;;;;13.87;nan;-24204.16;4887068;29;20196;-63
2022/05/08 06:34:12;;;;;;;11.27;6.15;;;;;;;13.52;nan;-24194.34;4889884;29;20652;-65
2022/05/08 06:36:38;;;;;;;11.00;6.38;;;;;;;13.34;nan;-24189.28;4890042;29;20216;-64
2022/05/08 06:39:03;;;;;;;9.50;6.15;;;;;;;13.57;nan;-24195.88;4890078;29;20188;-67
2022/05/08 06:41:29;;;;;;;10.18;5.82;;;;;;;14.13;nan;-24211.47;4889185;29;20194;-64
2022/05/08 06:43:55;;;;;;;8.23;5.53;;;;;;;13.96;nan;-24206.56;4887829;29;20251;-66
2022/05/08 06:46:20;;;;;;;7.93;5.68;;;;;;;14.15;nan;-24211.88;4889351;29;20287;-64
2022/05/08 06:48:47;;;;;;;8.73;5.90;;;;;;;14.45;nan;-24220.16;4887628;29;20648;-63
2022/05/08 06:51:30;;;;;;;7.65;5.53;;;;;;;14.49;nan;-24221.28;4893395;29;20192;-68
2022/05/08 06:54:19;;;;;;;8.25;5.85;;;;;;;14.92;nan;-24233.34;4894198;29;20686;-64
2022/05/08 06:56:45;;;;;;;9.52;6.00;;;;;;;15.21;nan;-24241.19;4893472;29;20196;-65
2022/05/08 07:01:55;;;;;;;10.93;6.13;;;;;;;14.94;nan;-24233.75;4888797;29;20286;-66
2022/05/08 07:04:20;;;;;;;9.60;6.30;;;;;;;14.81;nan;-24230.25;4888088;29;20271;-67
2022/05/08 07:06:47;;;;;;;10.68;5.72;;;;;;;15.25;nan;-24242.44;4887335;29;20212;-65
2022/05/08 07:09:13;;;;;;;10.05;5.80;;;;;;;14.62;nan;-24224.78;4888579;29;20180;-67
2022/05/08 07:11:41;;;;;;;10.27;6.80;;;;;;;14.68;nan;-24226.47;4888473;29;20187;-65
2022/05/08 07:14:06;;;;;;;9.52;5.88;;;;;;;14.44;nan;-24220.03;4890280;29;20255;-66
2022/05/08 07:16:32;;;;;;;9.68;5.80;;;;;;;15.25;nan;-24242.31;4889501;29;20668;-64
2022/05/08 07:18:57;;;;;;;9.38;6.28;;;;;;;15.31;nan;-24244.00;4891829;29;20213;-64
2022/05/08 07:21:23;;;;;;;13.98;6.00;;;;;;;15.77;nan;-24256.72;4891397;29;20246;-64
2022/05/08 07:23:48;;;;;;;8.70;5.88;;;;;;;15.60;nan;-24252.13;4891680;29;20652;-66
2022/05/08 07:26:15;;;;;;;9.18;6.00;;;;;;;15.20;nan;-24240.91;4892299;29;20211;-67
2022/05/08 07:28:41;;;;;;;8.05;5.65;;;;;;;15.31;nan;-24244.13;4889952;29;20607;-66
2022/05/08 07:31:06;;;;;;;10.35;6.45;;;;;;;15.70;nan;-24254.91;4890355;29;20192;-66
2022/05/08 07:33:34;;;;;;;10.18;6.05;;;;;;;15.71;nan;-24255.06;4894701;29;20183;-65
2022/05/08 07:36:13;;;;;;;9.35;6.00;;;;;;;15.89;nan;-24260.22;4893177;29;20219;-67
2022/05/08 07:38:46;;;;;;;11.55;6.43;;;;;;;16.15;nan;-24267.22;4893798;29;20226;-67
2022/05/08 07:41:17;;;;;;;9.07;5.78;;;;;;;15.95;nan;-24261.63;4897228;29;20255;-65
2022/05/08 07:43:46;;;;;;;8.27;6.00;;;;;;;16.62;nan;-24280.38;4897716;29;20192;-66
2022/05/08 07:46:13;;;;;;;9.68;6.18;;;;;;;16.55;nan;-24278.28;4896558;29;20187;-64
2022/05/08 07:48:39;;;;;;;10.70;5.85;;;;;;;16.91;nan;-24288.19;4898604;29;20184;-68
2022/05/08 07:51:05;;;;;;;9.82;5.90;;;;;;;17.15;nan;-24294.91;4898497;29;20675;-66
2022/05/08 07:53:32;;;;;;;8.93;5.63;;;;;;;16.79;nan;-24284.97;4896315;29;20398;-66
2022/05/08 07:55:59;;;;;;;7.18;5.85;;;;;;;17.04;nan;-24291.97;4898077;29;20309;-66
2022/05/08 07:58:28;;;;;;;7.35;5.50;;;;;;;16.82;nan;-24285.69;4898838;29;20204;-67
2022/05/08 08:00:54;;;;;;;8.93;5.97;;;;;;;16.61;nan;-24279.94;4912803;29;20184;-66
2022/05/08 08:03:24;;;;;;;10.82;6.55;;;;;;;16.45;nan;-24275.47;4898589;29;20195;-63
2022/05/08 08:05:49;;;;;;;10.55;6.22;;;;;;;16.41;nan;-24274.34;4909596;29;20183;-68
2022/05/08 08:08:17;;;;;;;10.60;6.40;;;;;;;16.20;nan;-24268.63;4917424;29;20648;-63
2022/05/08 08:10:43;;;;;;;15.30;10.43;;;;;;;16.49;nan;-24276.72;4904921;29;20261;-65
2022/05/08 08:13:09;;;;;;;22.70;13.55;;;;;;;16.58;nan;-24279.13;4898635;29;20188;-67
2022/05/08 08:15:35;;;;;;;10.63;5.68;;;;;;;16.71;nan;-24282.88;4912912;29;20286;-65
2022/05/08 08:18:01;;;;;;;9.85;6.90;;;;;;;16.57;nan;-24278.97;4898143;29;20180;-66
2022/05/08 08:20:26;;;;;;;10.90;7.90;;;;;;;16.48;nan;-24276.44;4913250;29;20172;-62
2022/05/08 08:22:53;;;;;;;20.33;13.63;;;;;;;16.18;nan;-24268.06;4916925;29;20176;-64
2022/05/08 08:25:20;;;;;;;13.65;8.82;;;;;;;16.57;nan;-24278.97;4900497;29;20197;-66
2022/05/08 08:27:45;;;;;;;9.50;6.75;;;;;;;15.94;nan;-24261.50;4898053;29;20214;-66
2022/05/08 08:30:11;;;;;;;10.15;6.72;;;;;;;16.60;nan;-24279.66;4896802;29;20184;-68
2022/05/08 08:32:37;;;;;;;22.80;14.40;;;;;;;16.83;nan;-24286.09;4897199;29;20192;-66
2022/05/08 08:35:03;;;;;;;12.55;7.70;;;;;;;16.75;nan;-24284.00;4912254;29;20216;-64
2022/05/08 08:37:28;;;;;;;14.73;9.35;;;;;;;16.46;nan;-24275.75;4895893;29;20679;-66
2022/05/08 08:39:53;;;;;;;72.32;40.92;;;;;;;16.61;nan;-24279.94;4897782;29;20180;-64
2022/05/08 08:42:30;;;;;;;10.48;6.70;;;;;;;16.21;nan;-24269.03;4908172;29;20191;-65
2022/05/08 08:47:58;;;;;;;14.15;8.40;;;;;;;16.83;nan;-24285.97;4895967;29;20259;-64
2022/05/08 08:50:26;;;;;;;9.15;6.40;;;;;;;16.47;nan;-24276.16;4896353;29;20184;-65
2022/05/08 08:53:03;;;;;;;65.43;33.53;;;;;;;16.18;nan;-24268.22;4880863;29;20195;-65
2022/05/08 08:55:29;;;;;;;46.88;28.80;;;;;;;16.08;nan;-24265.41;4897466;29;20180;-62
2022/05/08 08:57:55;;;;;;;9.25;6.15;;;;;;;16.23;nan;-24269.47;4901576;29;20572;-66
2022/05/08 09:00:23;;;;;;;8.15;5.80;;;;;;;16.32;nan;-24271.97;4916485;29;20652;-66
2022/05/08 09:02:52;;;;;;;54.90;29.02;;;;;;;16.35;nan;-24272.81;4904941;29;20227;-65
2022/05/08 09:05:17;;;;;;;9.43;5.70;;;;;;;16.50;nan;-24276.88;4894277;29;20251;-66
2022/05/08 09:07:45;;;;;;;35.55;20.80;;;;;;;16.97;nan;-24289.88;4895235;29;20668;-64
2022/05/08 09:10:21;;;;;;;118.05;50.42;;;;;;;17.08;nan;-24293.09;4895244;29;20184;-66
2022/05/08 09:12:53;;;;;;;54.13;29.13;;;;;;;17.45;nan;-24303.28;4895345;29;20186;-65
2022/05/08 09:15:28;;;;;;;13.60;9.75;;;;;;;17.34;nan;-24300.19;4894016;29;20672;-65
2022/05/08 09:18:08;;;;;;;33.88;16.70;;;;;;;17.45;nan;-24303.13;4894659;29;20184;-64
2022/05/08 09:20:44;;;;;;;14.50;10.15;;;;;;;17.48;nan;-24303.97;4892550;29;20179;-65
2022/05/08 09:23:14;;;;;;;8.25;5.43;;;;;;;17.08;nan;-24292.94;4894245;29;20659;-65
2022/05/08 09:25:44;;;;;;;8.10;5.20;;;;;;;17.26;nan;-24297.97;4895923;29;20231;-63
2022/05/08 09:28:13;;;;;;;5.97;4.32;;;;;;;17.34;nan;-24300.06;4887817;29;20306;-65
2022/05/08 09:31:02;;;;;;;11.80;7.32;;;;;;;17.73;nan;-24310.94;4894330;29;20176;-64
2022/05/08 09:33:29;;;;;;;10.80;5.32;;;;;;;17.12;nan;-24294.06;4890410;29;20663;-65
2022/05/08 09:35:55;;;;;;;16.08;8.40;;;;;;;17.22;nan;-24296.84;4892585;29;20184;-66
2022/05/08 09:38:20;;;;;;;8.48;5.35;;;;;;;17.82;nan;-24313.31;4890339;29;20247;-65
2022/05/08 09:41:04;;;;;;;10.23;5.13;;;;;;;17.66;nan;-24309.00;4893376;29;20267;-63
2022/05/08 09:43:30;;;;;;;11.88;6.38;;;;;;;17.32;nan;-24299.63;4892784;29;20184;-68
2022/05/08 09:45:58;;;;;;;26.27;11.95;;;;;;;18.01;nan;-24318.63;4894783;29;20199;-64
2022/05/08 09:48:29;;;;;;;17.13;9.13;;;;;;;18.18;nan;-24323.22;4876917;29;20271;-63
2022/05/08 09:51:02;;;;;;;31.10;16.95;;;;;;;18.49;nan;-24332.00;4893197;29;20279;-64
2022/05/08 09:53:28;;;;;;;29.13;12.77;;;;;;;15.22;nan;-24241.47;4895973;29;20203;-66
2022/05/08 09:55:59;;;;;;;47.30;17.63;;;;;;;18.97;nan;-24345.09;4894854;29;20215;-68
2022/05/08 09:58:25;;;;;;;13.98;7.07;;;;;;;18.71;nan;-24337.84;4895208;29;20239;-66
2022/05/08 10:00:52;;;;;;;8.80;4.43;;;;;;;17.84;nan;-24313.88;4893407;29;20199;-64
2022/05/08 10:03:18;;;;;;;6.05;4.40;;;;;;;17.65;nan;-24308.84;4877335;29;20251;-66
2022/05/08 10:05:45;;;;;;;6.20;4.40;;;;;;;17.19;nan;-24296.00;4892449;29;20588;-65
2022/05/08 10:08:16;;;;;;;8.27;4.82;;;;;;;17.84;nan;-24313.88;4892278;29;20211;-67
2022/05/08 10:14:00;;;;;;;5.95;4.80;;;;;;;19.03;nan;-24346.63;4891888;29;20191;-66
2022/05/08 10:16:45;;;;;;;19.10;4.60;;;;;;;18.72;nan;-24338.25;4894510;29;20195;-65
2022/05/08 10:19:30;;;;;;;7.50;4.82;;;;;;;18.46;nan;-24331.16;4882145;29;20180;-64
2022/05/08 10:21:55;;;;;;;6.72;4.88;;;;;;;18.13;nan;-24321.81;4889371;29;20667;-65
2022/05/08 10:24:32;;;;;;;5.80;3.95;;;;;;;18.36;nan;-24328.22;4903678;29;20203;-65
2022/05/08 10:27:25;;;;;;;7.90;4.13;;;;;;;18.48;nan;-24331.72;4903085;29;20254;-63
2022/05/08 10:29:50;;;;;;;6.45;4.43;;;;;;;18.93;nan;-24343.97;4889906;29;20211;-63
2022/05/08 10:32:28;;;;;;;6.68;4.70;;;;;;;19.07;nan;-24347.72;4896334;29;20239;-64
2022/05/08 10:35:21;;;;;;;7.15;4.60;;;;;;;19.35;nan;-24355.66;4894235;29;20184;-69
2022/05/08 10:37:50;;;;;;;6.55;4.25;;;;;;;19.16;nan;-24350.22;4890672;29;20742;-67
2022/05/08 10:40:21;;;;;;;9.20;5.07;;;;;;;19.32;nan;-24354.81;4890201;29;20187;-64
2022/05/08 10:42:52;;;;;;;6.55;4.20;;;;;;;19.00;nan;-24345.78;4890581;29;20196;-66
2022/05/08 10:45:30;;;;;;;6.32;4.32;;;;;;;19.03;nan;-24346.75;4891332;29;20184;-69
2022/05/08 10:47:56;;;;;;;6.78;4.53;;;;;;;18.40;nan;-24329.47;4891817;29;20282;-67
2022/05/08 10:50:22;;;;;;;6.53;4.57;;;;;;;18.59;nan;-24334.63;4895654;29;20188;-65
2022/05/08 10:52:49;;;;;;;7.43;4.68;;;;;;;18.18;nan;-24323.34;4896114;29;20631;-68
2022/05/08 10:55:16;;;;;;;8.23;4.70;;;;;;;18.41;nan;-24329.75;4895175;29;20222;-64
2022/05/08 10:57:43;;;;;;;7.82;4.90;;;;;;;18.60;nan;-24334.91;4895559;29;20180;-66
2022/05/08 11:00:11;;;;;;;6.55;4.65;;;;;;;18.42;nan;-24329.91;4895501;29;20219;-65
2022/05/08 11:02:41;;;;;;;5.70;3.88;;;;;;;18.85;nan;-24341.75;4895972;29;20975;-64
2022/05/08 11:05:07;;;;;;;9.02;5.07;;;;;;;19.06;nan;-24347.59;4898286;29;20195;-63
2022/05/08 11:07:33;;;;;;;10.55;4.40;;;;;;;19.25;nan;-24352.75;4897103;29;20223;-65
2022/05/08 11:09:59;;;;;;;8.20;4.20;;;;;;;19.25;nan;-24352.88;4899746;29;20176;-66
2022/05/08 11:12:25;;;;;;;7.68;4.50;;;;;;;19.48;nan;-24359.13;4896752;29;20192;-65
2022/05/08 11:14:50;;;;;;;6.47;4.20;;;;;;;19.34;nan;-24355.38;4897049;29;20183;-66
2022/05/08 11:17:16;;;;;;;6.35;4.43;;;;;;;19.47;nan;-24358.84;4877993;29;20204;-64
2022/05/08 11:19:52;;;;;;;6.30;4.25;;;;;;;19.66;nan;-24364.00;4895258;29;20191;-66
2022/05/08 11:22:17;;;;;;;6.13;4.22;;;;;;;19.67;nan;-24364.28;4898220;29;20675;-67
2022/05/08 11:24:45;;;;;;;8.88;4.25;;;;;;;19.16;nan;-24350.22;4896841;29;20188;-65
2022/05/08 11:27:13;;;;;;;8.48;4.40;;;;;;;19.22;nan;-24352.03;4899147;29;20207;-64
2022/05/08 11:29:46;;;;;;;9.73;4.05;;;;;;;19.85;nan;-24369.44;4896230;29;20203;-65
2022/05/08 11:38:03;;;;;;;6.88;4.70;;;;;;;20.69;nan;-24392.47;4896158;29;20215;-66
2022/05/08 11:40:30;;;;;;;5.78;3.95;;;;;;;20.43;nan;-24385.28;4895358;29;20679;-68
2022/05/08 11:42:55;;;;;;;5.53;3.85;;;;;;;20.02;nan;-24374.00;4898889;29;20256;-68
2022/05/08 11:45:22;;;;;;;6.50;4.28;;;;;;;20.00;nan;-24373.47;4882160;29;20610;-63
2022/05/08 11:47:53;;;;;;;5.88;4.43;;;;;;;19.88;nan;-24369.97;4897324;29;20211;-65
2022/05/08 11:50:19;;;;;;;5.95;4.05;;;;;;;20.19;nan;-24378.59;4898113;29;20271;-64
2022/05/08 11:52:45;;;;;;;6.68;4.35;;;;;;;20.35;nan;-24383.03;4894599;29;20259;-65
2022/05/08 11:55:12;;;;;;;10.00;4.50;;;;;;;20.19;nan;-24378.75;4898462;29;20216;-63
2022/05/08 11:57:43;;;;;;;12.68;4.88;;;;;;;19.98;nan;-24372.91;4898098;29;20184;-66
2022/05/08 12:00:11;;;;;;;7.10;4.28;;;;;;;20.55;nan;-24388.47;4900403;29;20188;-64